sensor_id;sensor_type;location;lat;lon;timestamp;pressure;altitude;pressure_sealevel;temperature;humidity
81397;BME280;70852;49.908;8.126;2023-07-31T00:01:28;100130.22;;;18.27;59.19
81397;BME280;70852;49.908;8.126;2023-07-31T00:03:56;100123.09;;;18.34;60.82
81397;BME280;70852;49.908;8.126;2023-07-31T00:06:21;100113.06;;;18.29;58.56
81397;BME280;70852;49.908;8.126;2023-07-31T00:08:49;100125.53;;;18.35;59.38
81397;BME280;70852;49.908;8.126;2023-07-31T00:11:16;100122.34;;;18.37;59.81
81397;BME280;70852;49.908;8.126;2023-07-31T00:13:44;100112.69;;;18.31;59.14
81397;BME280;70852;49.908;8.126;2023-07-31T00:16:11;100118.97;;;18.24;60.53
81397;BME280;70852;49.908;8.126;2023-07-31T00:18:37;100110.91;;;18.19;59.19
81397;BME280;70852;49.908;8.126;2023-07-31T00:21:02;100107.75;;;18.20;60.10
81397;BME280;70852;49.908;8.126;2023-07-31T00:23:30;100112.00;;;18.14;58.73
81397;BME280;70852;49.908;8.126;2023-07-31T00:25:55;100113.34;;;18.20;60.94
81397;BME280;70852;49.908;8.126;2023-07-31T00:28:20;100103.69;;;18.18;59.43
81397;BME280;70852;49.908;8.126;2023-07-31T00:30:45;100107.94;;;18.08;59.80
81397;BME280;70852;49.908;8.126;2023-07-31T00:33:13;100112.78;;;18.11;59.70
81397;BME280;70852;49.908;8.126;2023-07-31T00:35:38;100107.97;;;18.12;59.43
81397;BME280;70852;49.908;8.126;2023-07-31T00:38:04;100115.06;;;18.06;59.50
81397;BME280;70852;49.908;8.126;2023-07-31T00:40:29;100107.19;;;18.11;60.47
81397;BME280;70852;49.908;8.126;2023-07-31T00:42:57;100105.69;;;18.17;59.27
81397;BME280;70852;49.908;8.126;2023-07-31T00:45:26;100102.88;;;18.17;59.55
81397;BME280;70852;49.908;8.126;2023-07-31T00:47:54;100105.31;;;18.19;58.73
81397;BME280;70852;49.908;8.126;2023-07-31T00:50:24;100102.56;;;18.22;59.74
81397;BME280;70852;49.908;8.126;2023-07-31T00:52:52;100095.22;;;18.11;60.33
81397;BME280;70852;49.908;8.126;2023-07-31T00:55:22;100091.28;;;18.15;60.43
81397;BME280;70852;49.908;8.126;2023-07-31T00:57:49;100094.94;;;18.19;60.37
81397;BME280;70852;49.908;8.126;2023-07-31T01:00:16;100091.09;;;18.05;59.55
81397;BME280;70852;49.908;8.126;2023-07-31T01:02:44;100096.44;;;18.13;59.55
81397;BME280;70852;49.908;8.126;2023-07-31T01:05:13;100091.53;;;18.07;59.31
81397;BME280;70852;49.908;8.126;2023-07-31T01:07:50;100099.56;;;18.08;59.83
81397;BME280;70852;49.908;8.126;2023-07-31T01:10:26;100090.72;;;18.06;59.69
81397;BME280;70852;49.908;8.126;2023-07-31T01:12:58;100094.34;;;18.07;59.82
81397;BME280;70852;49.908;8.126;2023-07-31T01:15:24;100094.34;;;18.07;60.25
81397;BME280;70852;49.908;8.126;2023-07-31T01:17:49;100095.84;;;18.01;60.79
81397;BME280;70852;49.908;8.126;2023-07-31T01:20:29;100094.53;;;17.95;61.10
81397;BME280;70852;49.908;8.126;2023-07-31T01:31:29;100089.63;;;17.88;61.06
81397;BME280;70852;49.908;8.126;2023-07-31T01:33:56;100085.06;;;17.80;61.75
81397;BME280;70852;49.908;8.126;2023-07-31T01:36:23;100075.13;;;17.79;61.10
81397;BME280;70852;49.908;8.126;2023-07-31T01:38:51;100079.38;;;17.73;61.92
81397;BME280;70852;49.908;8.126;2023-07-31T01:41:21;100071.06;;;17.76;61.32
81397;BME280;70852;49.908;8.126;2023-07-31T01:43:49;100067.41;;;17.72;62.27
81397;BME280;70852;49.908;8.126;2023-07-31T01:46:17;100063.88;;;17.75;61.45
81397;BME280;70852;49.908;8.126;2023-07-31T01:48:45;100066.41;;;17.84;61.06
81397;BME280;70852;49.908;8.126;2023-07-31T01:51:12;100068.56;;;17.71;60.93
81397;BME280;70852;49.908;8.126;2023-07-31T01:53:40;100073.25;;;17.64;61.76
81397;BME280;70852;49.908;8.126;2023-07-31T01:56:07;100064.25;;;17.74;60.95
81397;BME280;70852;49.908;8.126;2023-07-31T01:58:40;100063.50;;;17.77;60.92
81397;BME280;70852;49.908;8.126;2023-07-31T02:01:05;100062.63;;;17.73;60.67
81397;BME280;70852;49.908;8.126;2023-07-31T02:03:30;100054.59;;;17.71;61.98
81397;BME280;70852;49.908;8.126;2023-07-31T02:05:58;100052.94;;;17.67;61.23
81397;BME280;70852;49.908;8.126;2023-07-31T02:08:23;100041.81;;;17.70;60.97
81397;BME280;70852;49.908;8.126;2023-07-31T02:10:49;100042.25;;;17.72;61.11
81397;BME280;70852;49.908;8.126;2023-07-31T02:13:16;100031.06;;;17.69;61.19
81397;BME280;70852;49.908;8.126;2023-07-31T02:15:44;100032.97;;;17.65;61.14
81397;BME280;70852;49.908;8.126;2023-07-31T02:18:10;100039.34;;;17.65;61.55
81397;BME280;70852;49.908;8.126;2023-07-31T02:20:35;100036.56;;;17.65;62.43
81397;BME280;70852;49.908;8.126;2023-07-31T02:23:03;100030.28;;;17.72;61.43
81397;BME280;70852;49.908;8.126;2023-07-31T02:25:30;100029.63;;;17.78;61.51
81397;BME280;70852;49.908;8.126;2023-07-31T02:27:56;100029.97;;;17.77;61.58
81397;BME280;70852;49.908;8.126;2023-07-31T02:30:23;100033.63;;;17.81;62.15
81397;BME280;70852;49.908;8.126;2023-07-31T02:32:49;100027.28;;;17.84;61.63
81397;BME280;70852;49.908;8.126;2023-07-31T02:35:17;100029.63;;;17.78;61.81
81397;BME280;70852;49.908;8.126;2023-07-31T02:37:43;100037.47;;;17.73;61.73
81397;BME280;70852;49.908;8.126;2023-07-31T02:40:09;100036.56;;;17.65;62.64
81397;BME280;70852;49.908;8.126;2023-07-31T02:42:34;100044.13;;;17.65;62.63
81397;BME280;70852;49.908;8.126;2023-07-31T02:45:05;100041.81;;;17.70;62.51
81397;BME280;70852;49.908;8.126;2023-07-31T02:47:30;100051.81;;;17.71;62.30
81397;BME280;70852;49.908;8.126;2023-07-31T02:50:04;100050.53;;;17.65;62.91
81397;BME280;70852;49.908;8.126;2023-07-31T02:52:30;100052.50;;;17.65;62.92
81397;BME280;70852;49.908;8.126;2023-07-31T02:54:55;100050.78;;;17.60;62.89
81397;BME280;70852;49.908;8.126;2023-07-31T02:57:26;100047.50;;;17.54;62.92
81397;BME280;70852;49.908;8.126;2023-07-31T02:59:51;100049.94;;;17.56;62.80
81397;BME280;70852;49.908;8.126;2023-07-31T03:02:19;100043.19;;;17.57;63.15
81397;BME280;70852;49.908;8.126;2023-07-31T03:04:44;100052.22;;;17.50;63.28
81397;BME280;70852;49.908;8.126;2023-07-31T03:07:16;100048.13;;;17.44;63.49
81397;BME280;70852;49.908;8.126;2023-07-31T03:09:42;100049.75;;;17.45;63.61
81397;BME280;70852;49.908;8.126;2023-07-31T03:12:08;100055.34;;;17.45;63.58
81397;BME280;70852;49.908;8.126;2023-07-31T03:14:36;100041.84;;;17.51;63.67
81397;BME280;70852;49.908;8.126;2023-07-31T03:17:06;100041.00;;;17.47;64.33
81397;BME280;70852;49.908;8.126;2023-07-31T03:19:32;100045.59;;;17.36;64.25
81397;BME280;70852;49.908;8.126;2023-07-31T03:21:58;100043.22;;;17.38;65.16
81397;BME280;70852;49.908;8.126;2023-07-31T03:24:28;100045.50;;;17.32;66.29
81397;BME280;70852;49.908;8.126;2023-07-31T03:26:56;100037.50;;;17.31;66.45
81397;BME280;70852;49.908;8.126;2023-07-31T03:29:24;100031.25;;;17.37;65.53
81397;BME280;70852;49.908;8.126;2023-07-31T03:31:53;100042.22;;;17.27;66.29
81397;BME280;70852;49.908;8.126;2023-07-31T03:34:26;100042.97;;;17.24;65.97
81397;BME280;70852;49.908;8.126;2023-07-31T03:36:51;100030.09;;;17.19;66.65
81397;BME280;70852;49.908;8.126;2023-07-31T03:39:19;100043.78;;;17.24;66.37
81397;BME280;70852;49.908;8.126;2023-07-31T03:41:44;100034.88;;;17.18;66.35
81397;BME280;70852;49.908;8.126;2023-07-31T03:44:11;100028.50;;;17.18;66.58
81397;BME280;70852;49.908;8.126;2023-07-31T03:46:37;100033.56;;;17.12;66.35
81397;BME280;70852;49.908;8.126;2023-07-31T03:49:02;100039.66;;;17.18;66.06
81397;BME280;70852;49.908;8.126;2023-07-31T03:51:30;100032.44;;;17.17;66.99
81397;BME280;70852;49.908;8.126;2023-07-31T03:53:59;100035.03;;;17.06;66.58
81397;BME280;70852;49.908;8.126;2023-07-31T03:56:25;100031.31;;;16.99;67.07
81397;BME280;70852;49.908;8.126;2023-07-31T03:58:53;100033.06;;;17.07;66.66
81397;BME280;70852;49.908;8.126;2023-07-31T04:01:20;100030.66;;;17.05;67.36
81397;BME280;70852;49.908;8.126;2023-07-31T04:03:51;100024.69;;;17.07;66.55
81397;BME280;70852;49.908;8.126;2023-07-31T04:06:18;100026.66;;;17.06;66.64
81397;BME280;70852;49.908;8.126;2023-07-31T04:08:49;100018.25;;;17.03;66.05
81397;BME280;70852;49.908;8.126;2023-07-31T04:11:16;100017.13;;;17.07;66.54
81397;BME280;70852;49.908;8.126;2023-07-31T04:13:42;100017.94;;;17.08;65.94
81397;BME280;70852;49.908;8.126;2023-07-31T04:16:12;100012.31;;;17.04;66.41
81397;BME280;70852;49.908;8.126;2023-07-31T04:18:39;100008.75;;;17.07;65.06
81397;BME280;70852;49.908;8.126;2023-07-31T04:21:08;99998.47;;;17.11;65.28
81397;BME280;70852;49.908;8.126;2023-07-31T04:23:33;99997.50;;;17.23;65.02
81397;BME280;70852;49.908;8.126;2023-07-31T04:26:00;99991.59;;;17.28;65.13
81397;BME280;70852;49.908;8.126;2023-07-31T04:28:26;99996.38;;;17.28;64.92
81397;BME280;70852;49.908;8.126;2023-07-31T04:30:51;99992.38;;;17.25;64.85
81397;BME280;70852;49.908;8.126;2023-07-31T04:33:17;99989.94;;;17.24;65.64
81397;BME280;70852;49.908;8.126;2023-07-31T04:35:50;99984.66;;;17.18;64.82
81397;BME280;70852;49.908;8.126;2023-07-31T04:38:18;99977.53;;;17.21;65.65
81397;BME280;70852;49.908;8.126;2023-07-31T04:40:43;99983.19;;;17.25;64.95
81397;BME280;70852;49.908;8.126;2023-07-31T04:43:11;99980.31;;;17.21;64.99
81397;BME280;70852;49.908;8.126;2023-07-31T04:45:36;99989.41;;;17.18;64.58
81397;BME280;70852;49.908;8.126;2023-07-31T04:48:04;99986.22;;;17.16;64.74
81397;BME280;70852;49.908;8.126;2023-07-31T04:50:31;99986.78;;;17.25;64.69
81397;BME280;70852;49.908;8.126;2023-07-31T04:52:57;99981.56;;;17.24;64.90
81397;BME280;70852;49.908;8.126;2023-07-31T04:55:23;99989.56;;;17.25;65.63
81397;BME280;70852;49.908;8.126;2023-07-31T04:57:48;99990.56;;;17.13;65.43
81397;BME280;70852;49.908;8.126;2023-07-31T05:00:14;100002.16;;;17.15;66.20
81397;BME280;70852;49.908;8.126;2023-07-31T05:02:46;100004.19;;;17.18;65.22
81397;BME280;70852;49.908;8.126;2023-07-31T05:05:14;100001.34;;;17.15;65.26
81397;BME280;70852;49.908;8.126;2023-07-31T05:07:40;99996.13;;;17.13;66.13
81397;BME280;70852;49.908;8.126;2023-07-31T05:10:08;99992.91;;;17.11;65.91
81397;BME280;70852;49.908;8.126;2023-07-31T05:12:36;99992.28;;;17.22;65.56
81397;BME280;70852;49.908;8.126;2023-07-31T05:15:01;99987.59;;;17.26;65.63
81397;BME280;70852;49.908;8.126;2023-07-31T05:17:27;99986.41;;;17.27;64.97
81397;BME280;70852;49.908;8.126;2023-07-31T05:19:55;99988.16;;;17.35;65.38
81397;BME280;70852;49.908;8.126;2023-07-31T05:22:23;99977.34;;;17.33;65.19
81397;BME280;70852;49.908;8.126;2023-07-31T05:24:53;99979.34;;;17.33;65.40
81397;BME280;70852;49.908;8.126;2023-07-31T05:27:20;99978.59;;;17.36;65.51
81397;BME280;70852;49.908;8.126;2023-07-31T05:29:48;99982.00;;;17.26;65.28
81397;BME280;70852;49.908;8.126;2023-07-31T05:32:13;99980.88;;;17.30;65.24
81397;BME280;70852;49.908;8.126;2023-07-31T05:34:41;99984.91;;;17.33;64.84
81397;BME280;70852;49.908;8.126;2023-07-31T05:37:07;99980.25;;;17.40;64.41
81397;BME280;70852;49.908;8.126;2023-07-31T05:39:35;99986.03;;;17.51;64.24
81397;BME280;70852;49.908;8.126;2023-07-31T05:42:00;99985.06;;;17.63;64.04
81397;BME280;70852;49.908;8.126;2023-07-31T05:44:28;99978.72;;;17.66;63.65
81397;BME280;70852;49.908;8.126;2023-07-31T05:46:56;99980.53;;;17.77;63.77
81397;BME280;70852;49.908;8.126;2023-07-31T05:49:21;99977.66;;;17.74;63.88
81397;BME280;70852;49.908;8.126;2023-07-31T05:51:49;99960.03;;;17.96;64.12
81397;BME280;70852;49.908;8.126;2023-07-31T05:54:17;99962.63;;;18.08;62.51
81397;BME280;70852;49.908;8.126;2023-07-31T05:56:45;99961.16;;;18.18;63.19
81397;BME280;70852;49.908;8.126;2023-07-31T05:59:12;99951.63;;;18.22;62.22
81397;BME280;70852;49.908;8.126;2023-07-31T06:01:38;99950.56;;;18.31;61.50
81397;BME280;70852;49.908;8.126;2023-07-31T06:04:04;99959.25;;;18.55;62.02
81397;BME280;70852;49.908;8.126;2023-07-31T06:06:29;99956.84;;;18.84;60.94
81397;BME280;70852;49.908;8.126;2023-07-31T06:08:55;99955.28;;;18.90;60.18
81397;BME280;70852;49.908;8.126;2023-07-31T06:11:21;99954.69;;;19.11;59.47
81397;BME280;70852;49.908;8.126;2023-07-31T06:13:46;99952.16;;;19.35;58.38
81397;BME280;70852;49.908;8.126;2023-07-31T06:16:13;99956.56;;;19.36;59.11
81397;BME280;70852;49.908;8.126;2023-07-31T06:18:39;99955.56;;;19.18;59.32
81397;BME280;70852;49.908;8.126;2023-07-31T06:21:06;99952.28;;;19.06;59.07
81397;BME280;70852;49.908;8.126;2023-07-31T06:23:32;99955.78;;;18.99;60.20
81397;BME280;70852;49.908;8.126;2023-07-31T06:25:57;99965.69;;;18.89;59.47
81397;BME280;70852;49.908;8.126;2023-07-31T06:28:30;99966.78;;;18.81;60.48
81397;BME280;70852;49.908;8.126;2023-07-31T06:30:56;99963.50;;;18.72;60.73
81397;BME280;70852;49.908;8.126;2023-07-31T06:33:21;99964.72;;;18.75;60.70
81397;BME280;70852;49.908;8.126;2023-07-31T06:35:51;99967.44;;;19.05;60.34
81397;BME280;70852;49.908;8.126;2023-07-31T06:38:25;99961.53;;;19.13;59.01
81397;BME280;70852;49.908;8.126;2023-07-31T06:40:53;99969.13;;;19.13;59.30
81397;BME280;70852;49.908;8.126;2023-07-31T06:43:18;99968.91;;;19.32;59.03
81397;BME280;70852;49.908;8.126;2023-07-31T06:45:44;99974.28;;;20.02;57.52
81397;BME280;70852;49.908;8.126;2023-07-31T06:48:09;99967.84;;;20.60;55.46
81397;BME280;70852;49.908;8.126;2023-07-31T06:50:37;99964.72;;;20.90;55.81
81397;BME280;70852;49.908;8.126;2023-07-31T06:53:04;99963.50;;;20.73;54.58
81397;BME280;70852;49.908;8.126;2023-07-31T06:55:32;99953.53;;;20.97;54.03
81397;BME280;70852;49.908;8.126;2023-07-31T06:57:58;99959.25;;;21.26;53.44
81397;BME280;70852;49.908;8.126;2023-07-31T07:00:23;99956.03;;;21.98;52.34
81397;BME280;70852;49.908;8.126;2023-07-31T07:02:51;99956.78;;;22.31;50.20
81397;BME280;70852;49.908;8.126;2023-07-31T07:05:17;99962.44;;;21.84;50.49
81397;BME280;70852;49.908;8.126;2023-07-31T07:07:43;99953.25;;;21.48;51.33
81397;BME280;70852;49.908;8.126;2023-07-31T07:10:09;99951.13;;;20.92;53.66
81397;BME280;70852;49.908;8.126;2023-07-31T07:12:40;99957.56;;;21.03;54.00
81397;BME280;70852;49.908;8.126;2023-07-31T07:15:10;99957.94;;;20.98;54.33
81397;BME280;70852;49.908;8.126;2023-07-31T07:17:35;99953.09;;;20.88;54.94
81397;BME280;70852;49.908;8.126;2023-07-31T07:20:01;99948.81;;;21.51;52.30
81397;BME280;70852;49.908;8.126;2023-07-31T07:22:28;99939.56;;;21.82;51.57
81397;BME280;70852;49.908;8.126;2023-07-31T07:24:54;99941.19;;;21.62;52.52
81397;BME280;70852;49.908;8.126;2023-07-31T07:27:19;99929.56;;;21.46;52.65
81397;BME280;70852;49.908;8.126;2023-07-31T07:29:45;99928.72;;;21.17;53.50
81397;BME280;70852;49.908;8.126;2023-07-31T07:32:11;99931.88;;;21.08;53.83
81397;BME280;70852;49.908;8.126;2023-07-31T07:34:39;99932.66;;;20.91;55.14
81397;BME280;70852;49.908;8.126;2023-07-31T07:37:07;99934.13;;;20.50;55.80
81397;BME280;70852;49.908;8.126;2023-07-31T07:39:35;99931.28;;;20.39;56.87
81397;BME280;70852;49.908;8.126;2023-07-31T07:42:03;99926.25;;;20.04;56.82
81397;BME280;70852;49.908;8.126;2023-07-31T07:44:31;99924.69;;;20.06;57.74
81397;BME280;70852;49.908;8.126;2023-07-31T07:46:59;99917.91;;;20.15;57.25
81397;BME280;70852;49.908;8.126;2023-07-31T07:49:26;99924.66;;;20.03;58.51
81397;BME280;70852;49.908;8.126;2023-07-31T07:51:52;99922.47;;;20.37;57.94
81397;BME280;70852;49.908;8.126;2023-07-31T07:54:22;99916.47;;;20.38;57.17
81397;BME280;70852;49.908;8.126;2023-07-31T07:56:47;99920.72;;;20.15;58.00
81397;BME280;70852;49.908;8.126;2023-07-31T07:59:12;99919.94;;;20.18;57.07
81397;BME280;70852;49.908;8.126;2023-07-31T08:01:38;99919.53;;;20.19;57.97
81397;BME280;70852;49.908;8.126;2023-07-31T08:04:03;99916.41;;;20.31;56.88
81397;BME280;70852;49.908;8.126;2023-07-31T08:06:31;99911.72;;;20.57;57.38
81397;BME280;70852;49.908;8.126;2023-07-31T08:08:59;99904.50;;;20.56;57.47
81397;BME280;70852;49.908;8.126;2023-07-31T08:11:30;99900.44;;;20.46;57.94
81397;BME280;70852;49.908;8.126;2023-07-31T08:13:58;99908.38;;;20.23;57.04
81397;BME280;70852;49.908;8.126;2023-07-31T08:16:23;99906.34;;;20.27;58.12
81397;BME280;70852;49.908;8.126;2023-07-31T08:18:48;99898.03;;;20.37;58.23
81397;BME280;70852;49.908;8.126;2023-07-31T08:21:14;99892.88;;;20.57;56.74
81397;BME280;70852;49.908;8.126;2023-07-31T08:23:40;99898.94;;;20.63;55.83
81397;BME280;70852;49.908;8.126;2023-07-31T08:26:05;99893.69;;;20.58;56.43
81397;BME280;70852;49.908;8.126;2023-07-31T08:31:02;99890.38;;;20.31;57.10
81397;BME280;70852;49.908;8.126;2023-07-31T08:33:29;99878.00;;;20.39;56.49
81397;BME280;70852;49.908;8.126;2023-07-31T08:35:54;99890.72;;;20.22;57.77
81397;BME280;70852;49.908;8.126;2023-07-31T08:38:20;99890.72;;;20.22;58.09
81397;BME280;70852;49.908;8.126;2023-07-31T08:40:46;99901.47;;;20.13;57.04
81397;BME280;70852;49.908;8.126;2023-07-31T08:43:14;99899.91;;;20.12;56.32
81397;BME280;70852;49.908;8.126;2023-07-31T08:45:41;99897.91;;;20.16;57.44
81397;BME280;70852;49.908;8.126;2023-07-31T08:48:11;99884.75;;;20.31;56.57
81397;BME280;70852;49.908;8.126;2023-07-31T08:50:38;99890.31;;;20.20;56.85
81397;BME280;70852;49.908;8.126;2023-07-31T08:53:05;99891.88;;;20.10;56.85
81397;BME280;70852;49.908;8.126;2023-07-31T08:55:32;99890.03;;;20.43;56.46
81397;BME280;70852;49.908;8.126;2023-07-31T08:57:58;99875.59;;;20.37;56.08
81397;BME280;70852;49.908;8.126;2023-07-31T09:00:24;99875.63;;;20.52;56.04
81397;BME280;70852;49.908;8.126;2023-07-31T09:03:15;99883.28;;;20.69;55.92
81397;BME280;70852;49.908;8.126;2023-07-31T09:05:42;99873.72;;;20.84;54.40
81397;BME280;70852;49.908;8.126;2023-07-31T09:08:09;99882.59;;;21.25;53.57
81397;BME280;70852;49.908;8.126;2023-07-31T09:10:40;99877.38;;;21.24;53.96
81397;BME280;70852;49.908;8.126;2023-07-31T09:13:12;99875.75;;;21.40;53.17
81397;BME280;70852;49.908;8.126;2023-07-31T09:15:37;99880.59;;;21.22;53.38
81397;BME280;70852;49.908;8.126;2023-07-31T09:18:06;99868.56;;;21.22;53.97
81397;BME280;70852;49.908;8.126;2023-07-31T09:20:31;99874.19;;;21.36;53.87
81397;BME280;70852;49.908;8.126;2023-07-31T09:23:13;99865.25;;;21.87;52.29
81397;BME280;70852;49.908;8.126;2023-07-31T09:25:41;99863.31;;;21.66;52.21
81397;BME280;70852;49.908;8.126;2023-07-31T09:28:11;99852.88;;;21.63;51.96
81397;BME280;70852;49.908;8.126;2023-07-31T09:30:59;99863.72;;;21.54;52.12
81397;BME280;70852;49.908;8.126;2023-07-31T09:33:24;99859.31;;;21.57;53.27
81397;BME280;70852;49.908;8.126;2023-07-31T09:35:51;99854.44;;;21.92;51.49
81397;BME280;70852;49.908;8.126;2023-07-31T09:38:17;99843.94;;;21.97;50.96
81397;BME280;70852;49.908;8.126;2023-07-31T09:40:44;99844.88;;;22.63;49.47
81397;BME280;70852;49.908;8.126;2023-07-31T09:43:12;99833.75;;;23.08;49.22
81397;BME280;70852;49.908;8.126;2023-07-31T09:45:39;99825.09;;;24.07;46.22
81397;BME280;70852;49.908;8.126;2023-07-31T09:48:09;99825.31;;;24.81;43.85
81397;BME280;70852;49.908;8.126;2023-07-31T09:50:44;99838.75;;;23.75;45.11
81397;BME280;70852;49.908;8.126;2023-07-31T09:53:09;99837.88;;;22.89;48.09
81397;BME280;70852;49.908;8.126;2023-07-31T09:55:36;99834.19;;;22.33;49.68
81397;BME280;70852;49.908;8.126;2023-07-31T09:58:11;99826.97;;;22.25;49.73
81397;BME280;70852;49.908;8.126;2023-07-31T10:00:36;99832.59;;;22.28;49.70
81397;BME280;70852;49.908;8.126;2023-07-31T10:03:06;99833.94;;;21.99;50.05
81397;BME280;70852;49.908;8.126;2023-07-31T10:05:36;99829.94;;;21.82;50.47
81397;BME280;70852;49.908;8.126;2023-07-31T10:08:03;99824.38;;;21.68;51.25
81397;BME280;70852;49.908;8.126;2023-07-31T10:10:28;99822.72;;;21.74;51.25
81397;BME280;70852;49.908;8.126;2023-07-31T10:12:56;99815.94;;;21.68;52.10
81397;BME280;70852;49.908;8.126;2023-07-31T10:15:21;99817.13;;;21.78;51.35
81397;BME280;70852;49.908;8.126;2023-07-31T10:17:50;99820.28;;;21.87;51.36
81397;BME280;70852;49.908;8.126;2023-07-31T10:20:16;99820.25;;;22.05;49.56
81397;BME280;70852;49.908;8.126;2023-07-31T10:22:47;99818.94;;;22.27;50.43
81397;BME280;70852;49.908;8.126;2023-07-31T10:25:15;99818.19;;;22.23;49.07
81397;BME280;70852;49.908;8.126;2023-07-31T10:27:49;99822.56;;;22.31;50.40
81397;BME280;70852;49.908;8.126;2023-07-31T10:30:17;99823.84;;;22.09;49.87
81397;BME280;70852;49.908;8.126;2023-07-31T10:32:47;99817.03;;;22.06;50.09
81397;BME280;70852;49.908;8.126;2023-07-31T10:35:19;99819.44;;;22.04;50.52
81397;BME280;70852;49.908;8.126;2023-07-31T10:37:47;99813.06;;;21.82;50.82
81397;BME280;70852;49.908;8.126;2023-07-31T10:40:13;99805.03;;;21.88;51.24
81397;BME280;70852;49.908;8.126;2023-07-31T10:42:53;99787.72;;;21.93;51.67
81397;BME280;70852;49.908;8.126;2023-07-31T10:45:36;99788.16;;;21.88;50.12
81397;BME280;70852;49.908;8.126;2023-07-31T10:48:17;99794.19;;;21.83;49.76
81397;BME280;70852;49.908;8.126;2023-07-31T10:50:58;99796.59;;;21.99;49.63
81397;BME280;70852;49.908;8.126;2023-07-31T10:53:29;99787.59;;;22.25;50.39
81397;BME280;70852;49.908;8.126;2023-07-31T10:56:13;99789.59;;;22.28;48.48
81397;BME280;70852;49.908;8.126;2023-07-31T10:58:44;99788.75;;;22.38;49.46
81397;BME280;70852;49.908;8.126;2023-07-31T11:01:10;99793.97;;;22.36;49.84
81397;BME280;70852;49.908;8.126;2023-07-31T11:03:50;99793.16;;;22.39;49.59
81397;BME280;70852;49.908;8.126;2023-07-31T11:06:18;99778.22;;;22.53;48.62
81397;BME280;70852;49.908;8.126;2023-07-31T11:08:48;99785.72;;;22.70;49.08
81397;BME280;70852;49.908;8.126;2023-07-31T11:11:20;99790.63;;;22.59;48.48
81397;BME280;70852;49.908;8.126;2023-07-31T11:13:50;99780.94;;;22.63;48.63
81397;BME280;70852;49.908;8.126;2023-07-31T11:16:19;99784.19;;;22.58;48.49
81397;BME280;70852;49.908;8.126;2023-07-31T11:18:47;99775.78;;;22.55;49.30
81397;BME280;70852;49.908;8.126;2023-07-31T11:23:46;99779.16;;;22.91;47.94
81397;BME280;70852;49.908;8.126;2023-07-31T11:26:11;99781.16;;;22.94;48.19
81397;BME280;70852;49.908;8.126;2023-07-31T11:28:39;99775.75;;;23.10;46.83
81397;BME280;70852;49.908;8.126;2023-07-31T11:31:08;99771.28;;;23.20;47.37
81397;BME280;70852;49.908;8.126;2023-07-31T11:33:34;99773.59;;;23.28;47.03
81397;BME280;70852;49.908;8.126;2023-07-31T11:35:59;99762.66;;;23.34;47.04
81397;BME280;70852;49.908;8.126;2023-07-31T11:38:32;99765.53;;;23.30;46.37
81397;BME280;70852;49.908;8.126;2023-07-31T11:41:03;99775.19;;;23.70;47.29
81397;BME280;70852;49.908;8.126;2023-07-31T11:43:31;99767.06;;;23.76;46.50
81397;BME280;70852;49.908;8.126;2023-07-31T11:45:59;99752.94;;;23.76;45.01
81397;BME280;70852;49.908;8.126;2023-07-31T11:48:35;99753.16;;;23.58;46.85
81397;BME280;70852;49.908;8.126;2023-07-31T11:51:06;99748.53;;;23.38;46.99
81397;BME280;70852;49.908;8.126;2023-07-31T11:53:43;99749.91;;;23.22;47.41
81397;BME280;70852;49.908;8.126;2023-07-31T11:56:16;99755.72;;;23.01;47.31
81397;BME280;70852;49.908;8.126;2023-07-31T11:58:42;99757.81;;;22.93;46.99
81397;BME280;70852;49.908;8.126;2023-07-31T12:01:13;99757.97;;;22.72;47.86
81397;BME280;70852;49.908;8.126;2023-07-31T12:03:41;99751.59;;;22.64;47.89
81397;BME280;70852;49.908;8.126;2023-07-31T12:06:09;99750.41;;;22.58;47.61
81397;BME280;70852;49.908;8.126;2023-07-31T12:08:38;99752.47;;;22.54;47.98
81397;BME280;70852;49.908;8.126;2023-07-31T12:11:05;99750.41;;;22.62;48.98
81397;BME280;70852;49.908;8.126;2023-07-31T12:13:31;99740.34;;;22.64;48.04
81397;BME280;70852;49.908;8.126;2023-07-31T12:15:59;99733.50;;;22.66;47.68
81397;BME280;70852;49.908;8.126;2023-07-31T12:18:27;99730.22;;;22.78;47.95
81397;BME280;70852;49.908;8.126;2023-07-31T12:20:56;99722.22;;;23.14;46.82
81397;BME280;70852;49.908;8.126;2023-07-31T12:23:24;99727.97;;;23.03;47.06
81397;BME280;70852;49.908;8.126;2023-07-31T12:28:37;99719.44;;;23.48;46.42
81397;BME280;70852;49.908;8.126;2023-07-31T12:31:04;99716.44;;;23.65;46.66
81397;BME280;70852;49.908;8.126;2023-07-31T12:33:34;99711.16;;;23.71;46.33
81397;BME280;70852;49.908;8.126;2023-07-31T12:36:01;99708.47;;;24.18;44.45
81397;BME280;70852;49.908;8.126;2023-07-31T12:38:32;99703.50;;;25.45;43.29
81397;BME280;70852;49.908;8.126;2023-07-31T12:41:00;99704.41;;;25.42;42.35
81397;BME280;70852;49.908;8.126;2023-07-31T12:43:28;99690.22;;;26.02;41.55
81397;BME280;70852;49.908;8.126;2023-07-31T12:45:56;99708.84;;;26.19;41.20
81397;BME280;70852;49.908;8.126;2023-07-31T12:48:24;99705.53;;;25.25;42.67
81397;BME280;70852;49.908;8.126;2023-07-31T12:50:52;99701.81;;;24.58;43.61
81397;BME280;70852;49.908;8.126;2023-07-31T12:53:17;99697.53;;;24.50;44.38
81397;BME280;70852;49.908;8.126;2023-07-31T12:55:42;99703.13;;;24.54;44.95
81397;BME280;70852;49.908;8.126;2023-07-31T12:58:08;99700.81;;;24.18;45.08
81397;BME280;70852;49.908;8.126;2023-07-31T13:00:33;99702.63;;;24.05;45.70
81397;BME280;70852;49.908;8.126;2023-07-31T13:02:59;99697.59;;;23.89;46.08
81397;BME280;70852;49.908;8.126;2023-07-31T13:05:27;99685.00;;;23.97;46.29
81397;BME280;70852;49.908;8.126;2023-07-31T13:07:53;99690.88;;;23.80;45.84
81397;BME280;70852;49.908;8.126;2023-07-31T13:10:23;99675.72;;;24.27;45.69
81397;BME280;70852;49.908;8.126;2023-07-31T13:12:54;99675.41;;;24.22;45.31
81397;BME280;70852;49.908;8.126;2023-07-31T13:15:19;99671.16;;;24.06;44.69
81397;BME280;70852;49.908;8.126;2023-07-31T13:17:47;99670.03;;;24.31;46.01